Haskell, NJ

12:55 PM EST on December 25, 2014 (GMT -0500)
Teterboro | Change Station
CLOSE
Current Station
Airport
Location: Teterboro,
Elevation: 7 ft
Nearby Weather Stations

Elev 7 ft 40.86 °N, 74.06 °W | Updated 4 minutes ago

Overcast
Overcast
51 °F
Feels Like 51 °F
N
20
Wind Variable Wind from WNW
Gusts 34 mph

Today
High -- | Low -- °F
--% Chance of Precip.
Yesterday
High -- | Low -- °F
Precip. -- in
7:20 AM 4:34 PM
Waxing Crescent, 18% visible
Pressure 29.78 in
Visibility 10.0 miles
Clouds Mostly Cloudy 6000 ft
Dew Point 30 °F
Humidity 44%
Rainfall 0.06 in
Snow Depth Not available.
UV 1 out of 12
Pollen .10 out of 12
Air Quality Not available.
Flu Activity Not available.
METAR KTEB 251751Z 29017G30KT 10SM BKN060 11/M01 A2978 RMK AO2 PK WND 29031/1741 SLP085 60000 T01061011 10106 20094 53021 $

More Conditions Fewer Conditions

Pressure 29.78 in
Visibility 10.0 miles
Clouds Mostly Cloudy 6000 ft
Dew Point 30 °F
Humidity 44%
Rainfall 0.06 in
Snow Depth Not available.
UV 1 out of 12
Pollen .10 out of 12
Air Quality Not available.
Flu Activity Not available.
METAR KTEB 251751Z 29017G30KT 10SM BKN060 11/M01 A2978 RMK AO2 PK WND 29031/1741 SLP085 60000 T01061011 10106 20094 53021 $

More Conditions Fewer Conditions

10-Day Weather Forecast

Almanac

Astronomy

Dec. 25, 2014 Rise Set
Actual Time
Civil Twilight
Nautical Twilight
Astronomical Twilight
Moon
Length of Visible Light
Length of Day
Tomorrow will be .
, % of the Moon is Illuminated

Today's Extremes

State Highs State Lows

Community

WunderPhotos

Upload Photos

1,780,351 photos uploaded!

WunderBlogs® & News

Nearby

Air Quality

  Air Quality AQ Index Pollutant
Not available.

Snow Depth

Station Depth Elevation

Earthquake Activity

City Distance Mag. Time & Date
Minimum magnitude displayed is 2.5.

Coastal Water Temperatures

Place Temperature

Nearby Weather Stations